Time;durP1;ratioP1;P1;durP2;ratioP2;P2;SDS_P1;SDS_P2;PMS_P1;PMS_P2;Temp;Humidity;BMP_temperature;BMP_pressure;BME280_temperature;BME280_humidity;BME280_pressure;Samples;Min_cycle;Max_cycle;Signal;HPM_P1;HPM_P2
2022/07/31 00:00:45;;;;;;;6.50;2.60;;;;;;;18.06;78.67;99824.36;104270;1277;99937;-73
2022/07/31 00:03:13;;;;;;;6.30;2.60;;;;;;;18.05;78.44;99817.21;104180;1277;139356;-72
2022/07/31 00:05:41;;;;;;;5.50;2.70;;;;;;;18.05;78.35;99813.80;104247;1277;95227;-73
2022/07/31 00:08:09;;;;;;;5.80;2.70;;;;;;;18.08;78.38;99817.08;104228;1275;95637;-73
2022/07/31 00:10:37;;;;;;;5.90;2.30;;;;;;;18.07;78.35;99814.05;104124;1277;138735;-74
2022/07/31 00:13:05;;;;;;;6.10;2.80;;;;;;;18.08;78.16;99808.09;104261;1276;99483;-74
2022/07/31 00:15:33;;;;;;;6.70;2.80;;;;;;;18.06;78.18;99809.46;104145;1277;139262;-74
2022/07/31 00:18:01;;;;;;;7.80;3.00;;;;;;;18.06;78.13;99808.88;104226;1277;95248;-72
2022/07/31 00:20:30;;;;;;;6.10;2.70;;;;;;;18.03;78.15;99808.02;104177;1277;95167;-70
2022/07/31 00:22:58;;;;;;;5.80;2.50;;;;;;;17.96;78.58;99801.64;104216;1277;108369;-71
2022/07/31 00:25:26;;;;;;;6.80;2.80;;;;;;;17.90;78.78;99802.72;104212;1276;99374;-72
2022/07/31 00:27:54;;;;;;;6.00;2.80;;;;;;;17.88;78.84;99795.83;104124;1277;139438;-73
2022/07/31 00:30:24;;;;;;;6.80;2.80;;;;;;;17.90;78.94;99796.30;104144;1276;95244;-72
2022/07/31 00:32:52;;;;;;;5.50;2.60;;;;;;;17.93;78.80;99792.86;104133;1276;138781;-73
2022/07/31 00:35:20;;;;;;;5.90;2.90;;;;;;;17.94;78.90;99788.19;104182;1276;110011;-72
2022/07/31 00:37:48;;;;;;;7.10;2.90;;;;;;;17.91;78.89;99791.40;104181;1276;99439;-71
2022/07/31 00:40:16;;;;;;;5.70;2.70;;;;;;;17.88;78.99;99786.53;104077;1276;139171;-71
2022/07/31 00:42:44;;;;;;;5.60;2.80;;;;;;;17.84;79.07;99786.07;104096;1277;95260;-73
2022/07/31 00:45:13;;;;;;;6.30;2.70;;;;;;;17.87;79.14;99788.05;104089;1276;138917;-72
2022/07/31 00:47:42;;;;;;;7.00;2.90;;;;;;;17.91;79.06;99786.87;104059;1277;196994;-72
2022/07/31 00:50:11;;;;;;;5.50;2.50;;;;;;;17.95;79.03;99782.85;104196;1276;98382;-72
2022/07/31 00:52:39;;;;;;;6.00;2.40;;;;;;;17.97;78.79;99777.02;104043;1276;139090;-72
2022/07/31 00:55:08;;;;;;;6.10;3.00;;;;;;;17.92;78.89;99778.77;104108;1277;95908;-73
2022/07/31 00:57:36;;;;;;;7.60;2.80;;;;;;;17.89;79.02;99775.50;104116;1275;138611;-73
2022/07/31 01:00:06;;;;;;;7.10;2.90;;;;;;;17.89;79.09;99779.99;104207;1277;109873;-73
2022/07/31 01:02:38;;;;;;;6.10;2.70;;;;;;;17.89;79.09;99779.11;104053;1277;139233;-74
2022/07/31 01:05:13;;;;;;;5.80;2.70;;;;;;;17.89;79.19;99780.01;104100;1276;108855;-73
2022/07/31 01:07:42;;;;;;;6.40;2.80;;;;;;;17.92;79.12;99779.86;104204;1276;95849;-73
2022/07/31 01:10:13;;;;;;;6.10;2.70;;;;;;;17.93;79.02;99779.98;104129;1276;139114;-72
2022/07/31 01:12:53;;;;;;;5.70;2.90;;;;;;;17.93;79.02;99780.71;104189;1277;109977;-72
2022/07/31 01:15:22;;;;;;;6.30;2.50;;;;;;;17.89;79.14;99780.38;104040;1277;138795;-72
2022/07/31 01:17:51;;;;;;;5.90;3.00;;;;;;;17.83;79.51;99779.11;104192;1277;109381;-73
2022/07/31 01:20:20;;;;;;;7.90;2.90;;;;;;;17.82;79.23;99770.96;104131;1276;95687;-72
2022/07/31 01:23:12;;;;;;;6.40;2.80;;;;;;;17.79;79.25;99769.18;104072;1276;138865;-72
2022/07/31 01:26:10;;;;;;;7.20;2.60;;;;;;;17.79;79.09;99765.59;104114;1277;110185;-72
2022/07/31 01:29:05;;;;;;;6.00;2.40;;;;;;;17.81;78.97;99759.19;104570;1268;138748;-73
2022/07/31 01:31:52;;;;;;;9.90;3.40;;;;;;;17.87;78.82;99755.52;104701;1268;108891;-71
2022/07/31 01:34:43;;;;;;;6.20;2.50;;;;;;;17.86;78.49;99753.59;104372;1268;139443;-72
2022/07/31 01:37:28;;;;;;;7.40;2.80;;;;;;;17.81;78.43;99744.99;104606;1269;95589;-72
2022/07/31 01:40:10;;;;;;;6.90;2.50;;;;;;;17.70;78.64;99739.79;104641;1268;138649;-72
2022/07/31 01:42:43;;;;;;;6.70;2.50;;;;;;;17.67;78.79;99732.27;104538;1269;98559;-71
2022/07/31 01:45:14;;;;;;;5.70;2.60;;;;;;;17.66;78.90;99723.84;104649;1268;139721;-72
2022/07/31 01:47:43;;;;;;;6.80;2.60;;;;;;;17.61;78.86;99722.61;104658;1270;95528;-72
2022/07/31 01:50:14;;;;;;;5.80;2.40;;;;;;;17.63;78.88;99722.49;104668;1270;95745;-72
2022/07/31 01:53:02;;;;;;;6.80;2.50;;;;;;;17.64;78.88;99718.98;104749;1268;109709;-72
2022/07/31 01:55:33;;;;;;;6.70;2.30;;;;;;;17.67;78.90;99719.69;104551;1270;99260;-72
2022/07/31 01:58:24;;;;;;;6.50;2.40;;;;;;;17.67;78.77;99716.65;104433;1270;138617;-71
2022/07/31 02:00:57;;;;;;;5.40;2.30;;;;;;;17.67;78.79;99713.80;104781;1268;95621;-71
2022/07/31 02:03:29;;;;;;;5.30;2.40;;;;;;;17.63;79.00;99713.88;104609;1268;138677;-72
2022/07/31 02:06:15;;;;;;;5.80;2.60;;;;;;;17.64;79.01;99720.60;104722;1268;109714;-74
2022/07/31 02:08:50;;;;;;;5.10;2.10;;;;;;;17.66;78.83;99721.73;104698;1268;138904;-74
2022/07/31 02:11:19;;;;;;;5.80;2.10;;;;;;;17.59;79.22;99730.44;104624;1268;108509;-75
2022/07/31 02:13:50;;;;;;;5.60;2.40;;;;;;;17.57;79.31;99730.23;104847;1268;95155;-75
2022/07/31 02:16:19;;;;;;;7.40;2.30;;;;;;;17.50;79.68;99734.60;104753;1268;138644;-74
2022/07/31 02:18:52;;;;;;;6.80;2.40;;;;;;;17.47;79.91;99728.88;104703;1270;109643;-76
2022/07/31 02:21:25;;;;;;;6.70;2.30;;;;;;;17.50;79.98;99727.79;104588;1270;138725;-77
2022/07/31 02:23:53;;;;;;;5.90;2.40;;;;;;;17.54;79.84;99723.96;104638;1270;109109;-75
2022/07/31 02:26:25;;;;;;;5.70;2.50;;;;;;;17.56;79.87;99717.73;105012;1268;95231;-77
2022/07/31 02:28:53;;;;;;;7.30;2.40;;;;;;;17.57;79.79;99717.33;104744;1267;139001;-77
2022/07/31 02:31:25;;;;;;;7.20;2.70;;;;;;;17.58;79.89;99710.77;104697;1268;109330;-76
2022/07/31 02:33:53;;;;;;;6.70;2.50;;;;;;;17.61;79.55;99708.46;104757;1270;138917;-75
2022/07/31 02:36:22;;;;;;;6.60;2.50;;;;;;;17.59;79.51;99704.98;104731;1268;108883;-75
2022/07/31 02:38:51;;;;;;;5.30;2.40;;;;;;;17.52;79.69;99703.08;104661;1268;138935;-76
2022/07/31 02:41:20;;;;;;;5.70;2.30;;;;;;;17.52;79.77;99704.70;104664;1268;95922;-76
2022/07/31 02:43:49;;;;;;;6.80;3.00;;;;;;;17.53;79.91;99699.27;104794;1268;109767;-74
2022/07/31 02:46:22;;;;;;;6.30;2.50;;;;;;;17.53;79.72;99696.58;104456;1268;138712;-75
2022/07/31 02:48:51;;;;;;;6.10;2.50;;;;;;;17.53;79.77;99693.34;104665;1268;107457;-75
2022/07/31 02:51:22;;;;;;;5.50;2.40;;;;;;;17.53;79.63;99692.45;104639;1268;138753;-75
2022/07/31 02:53:51;;;;;;;6.60;2.30;;;;;;;17.53;79.71;99696.02;104717;1268;95287;-75
2022/07/31 02:56:22;;;;;;;6.80;2.80;;;;;;;17.52;79.72;99691.05;104660;1268;109756;-75
2022/07/31 02:58:52;;;;;;;6.50;2.70;;;;;;;17.55;79.71;99690.33;104388;1270;138769;-76
2022/07/31 03:01:24;;;;;;;5.50;2.50;;;;;;;17.57;79.55;99688.20;104710;1268;109257;-75
2022/07/31 03:03:52;;;;;;;5.40;2.40;;;;;;;17.59;79.50;99685.63;104643;1268;138716;-76
2022/07/31 03:06:20;;;;;;;6.00;2.60;;;;;;;17.54;79.57;99686.62;104711;1268;95510;-77
2022/07/31 03:08:48;;;;;;;5.80;2.70;;;;;;;17.53;79.57;99684.02;104558;1268;139068;-76
2022/07/31 03:11:20;;;;;;;5.50;2.50;;;;;;;17.56;79.64;99682.39;104534;1270;98295;-76
2022/07/31 03:13:49;;;;;;;6.70;2.60;;;;;;;17.57;79.63;99682.50;104717;1268;107741;-75
2022/07/31 03:16:18;;;;;;;7.30;2.50;;;;;;;17.57;79.47;99682.50;104684;1268;138802;-74
2022/07/31 03:18:47;;;;;;;5.70;2.50;;;;;;;17.58;79.63;99677.20;104817;1268;95233;-75
2022/07/31 03:21:17;;;;;;;6.20;2.60;;;;;;;17.59;79.60;99676.63;104784;1268;138963;-75
2022/07/31 03:23:46;;;;;;;5.30;2.50;;;;;;;17.59;79.58;99669.41;104871;1268;99648;-74
2022/07/31 03:26:19;;;;;;;6.10;2.70;;;;;;;17.56;79.67;99670.85;104769;1268;108973;-75
2022/07/31 03:28:47;;;;;;;6.00;2.60;;;;;;;17.51;79.85;99668.89;104526;1269;138922;-75
2022/07/31 03:31:15;;;;;;;5.60;2.60;;;;;;;17.50;80.04;99671.28;104868;1268;95813;-74
2022/07/31 03:33:43;;;;;;;5.70;2.60;;;;;;;17.51;79.98;99667.06;104635;1269;138587;-74
2022/07/31 03:36:13;;;;;;;5.90;2.80;;;;;;;17.54;79.97;99663.82;104837;1268;99871;-74
2022/07/31 03:38:41;;;;;;;6.50;3.00;;;;;;;17.53;80.00;99658.91;104713;1268;139332;-74
2022/07/31 03:41:24;;;;;;;6.10;2.90;;;;;;;17.58;79.95;99661.64;104807;1268;95633;-75
2022/07/31 03:43:53;;;;;;;6.00;2.90;;;;;;;17.58;79.84;99657.45;104850;1268;95648;-74
2022/07/31 03:46:24;;;;;;;6.50;2.70;;;;;;;17.59;79.97;99655.98;104519;1270;139162;-75
2022/07/31 03:48:52;;;;;;;6.40;2.80;;;;;;;17.61;79.64;99652.94;104745;1270;98818;-75
2022/07/31 03:51:23;;;;;;;6.60;2.60;;;;;;;17.61;79.70;99649.56;104824;1268;138649;-74
2022/07/31 03:53:51;;;;;;;5.60;2.50;;;;;;;17.61;79.87;99651.15;104806;1268;95694;-74
2022/07/31 03:56:46;;;;;;;5.20;2.50;;;;;;;17.56;80.08;99647.05;104447;1268;140722;-73
2022/07/31 03:59:16;;;;;;;5.50;3.00;;;;;;;17.59;79.98;99643.08;104639;1268;109764;-75
2022/07/31 04:01:46;;;;;;;5.40;2.80;;;;;;;17.60;80.07;99644.09;104608;1270;100833;-74
2022/07/31 04:04:36;;;;;;;7.50;2.80;;;;;;;17.58;80.16;99642.57;104557;1268;139193;-74
2022/07/31 04:07:04;;;;;;;6.80;2.90;;;;;;;17.55;80.14;99642.91;104768;1268;95234;-74
2022/07/31 04:09:33;;;;;;;6.20;2.70;;;;;;;17.55;79.93;99638.09;104669;1268;138514;-75
2022/07/31 04:12:02;;;;;;;5.60;2.70;;;;;;;17.58;80.17;99639.70;104941;1268;109868;-74
2022/07/31 04:14:30;;;;;;;5.80;2.70;;;;;;;17.56;80.25;99635.86;104698;1270;99108;-74
2022/07/31 04:16:58;;;;;;;5.20;2.70;;;;;;;17.56;80.30;99631.92;104827;1268;108191;-74
2022/07/31 04:19:29;;;;;;;5.90;2.80;;;;;;;17.54;80.48;99631.30;104867;1267;95610;-74
2022/07/31 04:21:58;;;;;;;5.90;2.50;;;;;;;17.57;80.29;99630.05;104577;1268;138625;-73
2022/07/31 04:24:27;;;;;;;5.70;2.50;;;;;;;17.61;80.19;99626.80;104710;1270;108709;-73
2022/07/31 04:27:03;;;;;;;6.00;2.70;;;;;;;17.57;80.51;99626.48;104733;1268;139364;-74
2022/07/31 04:29:40;;;;;;;7.20;2.60;;;;;;;17.60;80.35;99624.69;104617;1269;108787;-75
2022/07/31 04:32:07;;;;;;;4.90;2.60;;;;;;;17.64;80.37;99624.58;104720;1268;95819;-74
2022/07/31 04:34:42;;;;;;;5.20;2.40;;;;;;;17.69;80.24;99625.16;104586;1268;138542;-74
2022/07/31 04:37:10;;;;;;;6.10;2.40;;;;;;;17.73;79.97;99621.60;104801;1268;110638;-74
2022/07/31 04:39:38;;;;;;;6.10;2.70;;;;;;;17.78;80.01;99621.64;104465;1271;138768;-74
2022/07/31 04:42:06;;;;;;;5.90;2.40;;;;;;;17.82;79.59;99621.55;104610;1267;108669;-74
2022/07/31 04:44:38;;;;;;;4.90;2.60;;;;;;;17.80;79.64;99622.73;104695;1268;138074;-74
2022/07/31 04:47:07;;;;;;;5.50;2.40;;;;;;;17.73;79.80;99620.73;104811;1268;95672;-75
2022/07/31 04:49:41;;;;;;;6.00;2.70;;;;;;;17.75;79.78;99623.11;104743;1270;109745;-75
2022/07/31 04:52:11;;;;;;;4.50;2.30;;;;;;;17.77;79.86;99624.94;104667;1268;137626;-75
2022/07/31 04:54:40;;;;;;;5.20;2.40;;;;;;;17.78;79.84;99621.33;104845;1268;108833;-75
2022/07/31 04:57:10;;;;;;;5.50;2.40;;;;;;;17.80;79.92;99622.25;104501;1270;138740;-74
2022/07/31 04:59:38;;;;;;;4.60;2.10;;;;;;;17.77;79.76;99626.98;104701;1270;95209;-74
2022/07/31 05:02:26;;;;;;;4.40;2.10;;;;;;;17.80;79.80;99620.95;104793;1268;109264;-75
2022/07/31 05:04:54;;;;;;;4.20;2.00;;;;;;;17.79;79.63;99627.09;104518;1268;139515;-75
2022/07/31 05:07:27;;;;;;;4.00;1.60;;;;;;;17.77;79.69;99628.35;104756;1268;109113;-75
2022/07/31 05:09:57;;;;;;;3.90;1.80;;;;;;;17.75;79.81;99627.98;104468;1270;139608;-75
2022/07/31 05:12:26;;;;;;;6.00;1.70;;;;;;;17.71;80.06;99631.79;104710;1268;95288;-75
2022/07/31 05:14:54;;;;;;;3.60;1.70;;;;;;;17.65;80.32;99628.80;104581;1268;140148;-74
2022/07/31 05:17:22;;;;;;;3.90;1.70;;;;;;;17.63;80.51;99628.20;104636;1270;99381;-74
2022/07/31 05:19:59;;;;;;;3.70;1.70;;;;;;;17.67;80.45;99623.42;104761;1268;108851;-75
2022/07/31 05:22:46;;;;;;;3.80;1.50;;;;;;;17.69;80.34;99623.83;104701;1268;140003;-75
2022/07/31 05:25:33;;;;;;;3.50;1.60;;;;;;;17.69;80.31;99626.21;104813;1268;95662;-76
2022/07/31 05:28:01;;;;;;;4.00;1.90;;;;;;;17.64;80.52;99630.83;104501;1270;139034;-76
2022/07/31 05:30:29;;;;;;;4.00;1.80;;;;;;;17.64;80.48;99624.70;104738;1268;97461;-76
2022/07/31 05:32:57;;;;;;;3.10;1.30;;;;;;;17.69;80.38;99624.27;104688;1268;138983;-76
2022/07/31 05:35:25;;;;;;;3.40;1.40;;;;;;;17.75;80.18;99624.16;104776;1268;95858;-75
2022/07/31 05:37:54;;;;;;;3.70;1.30;;;;;;;17.82;79.89;99623.55;104806;1268;95997;-75
2022/07/31 05:40:35;;;;;;;3.40;1.30;;;;;;;17.84;79.64;99628.05;104678;1269;139330;-75
2022/07/31 05:43:33;;;;;;;3.00;1.10;;;;;;;17.79;79.63;99623.94;104244;1268;99916;-74
2022/07/31 05:46:08;;;;;;;3.30;1.20;;;;;;;17.78;79.83;99625.05;104714;1268;138727;-75
2022/07/31 05:48:36;;;;;;;3.20;1.10;;;;;;;17.79;79.77;99624.26;104620;1268;95356;-75
2022/07/31 05:51:08;;;;;;;2.90;1.10;;;;;;;17.82;79.84;99624.98;104630;1270;139295;-76
2022/07/31 05:53:37;;;;;;;2.90;1.10;;;;;;;17.78;79.79;99626.89;104664;1268;110320;-76
2022/07/31 05:56:32;;;;;;;3.00;1.10;;;;;;;17.77;79.72;99628.59;104569;1268;138975;-75
2022/07/31 05:59:01;;;;;;;2.70;1.10;;;;;;;17.80;79.86;99626.91;104814;1269;108772;-75
2022/07/31 06:01:29;;;;;;;3.10;1.20;;;;;;;17.81;79.60;99629.73;104691;1270;95261;-74
2022/07/31 06:03:57;;;;;;;3.40;1.00;;;;;;;17.82;79.26;99624.95;104618;1270;139264;-75
2022/07/31 06:06:37;;;;;;;2.20;1.00;;;;;;;17.80;79.55;99628.72;104775;1270;108731;-75
2022/07/31 06:09:05;;;;;;;2.60;1.10;;;;;;;17.78;79.49;99629.91;104594;1270;139519;-75
2022/07/31 06:11:38;;;;;;;3.20;1.00;;;;;;;17.75;79.66;99625.30;104756;1268;108847;-75
2022/07/31 06:14:07;;;;;;;2.60;0.90;;;;;;;17.78;79.59;99624.67;104608;1268;95650;-76
2022/07/31 06:16:53;;;;;;;2.90;1.10;;;;;;;17.82;79.52;99620.13;104682;1268;138481;-76
2022/07/31 06:19:23;;;;;;;3.10;1.10;;;;;;;17.89;79.24;99615.86;104759;1268;109953;-74
2022/07/31 06:21:52;;;;;;;2.50;1.00;;;;;;;17.90;78.88;99613.45;105106;1270;139580;-75
2022/07/31 06:24:29;;;;;;;2.70;0.80;;;;;;;17.85;78.41;99615.04;104827;1270;108934;-74
2022/07/31 06:27:01;;;;;;;2.80;1.00;;;;;;;17.83;78.70;99618.80;104578;1268;138730;-74
2022/07/31 06:29:32;;;;;;;2.50;0.80;;;;;;;17.87;78.53;99612.93;104732;1270;95210;-75
2022/07/31 06:32:10;;;;;;;2.20;0.80;;;;;;;17.88;78.42;99613.18;104614;1269;109728;-75
2022/07/31 06:34:38;;;;;;;3.10;0.90;;;;;;;17.82;78.39;99614.88;104525;1270;138985;-76
2022/07/31 06:37:07;;;;;;;2.40;0.90;;;;;;;17.83;78.32;99614.31;104777;1268;108823;-76
2022/07/31 06:39:35;;;;;;;2.80;0.90;;;;;;;17.82;78.58;99612.36;104553;1270;138739;-76
2022/07/31 06:42:46;;;;;;;2.50;0.90;;;;;;;17.74;78.58;99610.83;104885;1268;95311;-75
2022/07/31 06:45:43;;;;;;;2.10;0.90;;;;;;;17.67;78.70;99611.77;104536;1270;139032;-76
2022/07/31 06:48:37;;;;;;;2.30;0.80;;;;;;;17.68;78.84;99613.36;105041;1268;99977;-75
2022/07/31 06:51:09;;;;;;;2.50;0.80;;;;;;;17.72;78.92;99613.60;104778;1268;139573;-74
2022/07/31 06:53:58;;;;;;;1.90;0.80;;;;;;;17.77;78.82;99616.33;104823;1270;95237;-74
2022/07/31 06:56:28;;;;;;;3.00;0.90;;;;;;;17.79;78.72;99617.30;104690;1269;95613;-74
2022/07/31 06:58:56;;;;;;;2.50;0.80;;;;;;;17.83;78.63;99616.08;104709;1269;138879;-74
2022/07/31 07:01:24;;;;;;;2.30;0.80;;;;;;;17.82;78.41;99611.83;104765;1270;99225;-73
2022/07/31 07:03:52;;;;;;;2.40;0.80;;;;;;;17.78;78.33;99611.77;104588;1269;138658;-75
2022/07/31 07:06:21;;;;;;;3.00;0.90;;;;;;;17.76;78.43;99611.39;104621;1270;95726;-74
2022/07/31 07:08:50;;;;;;;3.00;1.00;;;;;;;17.72;78.59;99606.77;104582;1268;139250;-74
2022/07/31 07:11:19;;;;;;;2.30;0.90;;;;;;;17.78;78.63;99606.04;104779;1268;109856;-74
2022/07/31 07:13:47;;;;;;;2.70;0.80;;;;;;;17.75;78.48;99604.65;104662;1270;99895;-74
2022/07/31 07:16:16;;;;;;;2.50;1.00;;;;;;;17.74;78.61;99602.36;104689;1268;138858;-74
2022/07/31 07:18:44;;;;;;;2.60;0.80;;;;;;;17.75;78.69;99602.46;104745;1270;95743;-74
2022/07/31 07:21:12;;;;;;;2.20;0.90;;;;;;;17.72;78.77;99599.98;104583;1270;139234;-74
2022/07/31 07:23:42;;;;;;;3.10;1.00;;;;;;;17.70;78.88;99602.09;104775;1268;109420;-74
2022/07/31 07:26:33;;;;;;;2.60;1.10;;;;;;;17.67;79.05;99599.96;104424;1268;139855;-74
2022/07/31 07:29:02;;;;;;;2.50;0.90;;;;;;;17.70;79.20;99602.44;104849;1268;108835;-73
2022/07/31 07:31:30;;;;;;;2.50;0.90;;;;;;;17.73;79.17;99605.27;104739;1268;95942;-74
2022/07/31 07:33:59;;;;;;;2.80;1.00;;;;;;;17.76;79.23;99604.54;104597;1270;139006;-74
2022/07/31 07:36:27;;;;;;;2.90;1.00;;;;;;;17.80;79.45;99601.73;104682;1269;109694;-74
2022/07/31 07:39:02;;;;;;;3.10;1.20;;;;;;;17.86;79.26;99601.73;104729;1268;139062;-74
2022/07/31 07:41:32;;;;;;;3.30;1.10;;;;;;;17.88;78.99;99602.45;104597;1270;108859;-74
2022/07/31 07:44:00;;;;;;;2.80;1.10;;;;;;;17.92;79.01;99598.08;104825;1268;96149;-74
2022/07/31 07:46:29;;;;;;;2.30;1.10;;;;;;;17.97;78.98;99596.98;104582;1268;138549;-74
2022/07/31 07:49:01;;;;;;;2.90;1.30;;;;;;;18.03;78.99;99595.16;104797;1267;109723;-74
2022/07/31 07:51:37;;;;;;;3.70;1.20;;;;;;;18.06;78.89;99599.48;104727;1268;138761;-73
2022/07/31 07:54:57;;;;;;;3.50;1.20;;;;;;;18.08;78.89;99600.63;104757;1268;109052;-74
2022/07/31 07:57:44;;;;;;;3.70;1.50;;;;;;;18.12;78.80;99600.66;104717;1268;138912;-74
2022/07/31 08:00:31;;;;;;;3.70;1.50;;;;;;;18.13;78.84;99597.85;104706;1269;95284;-73
2022/07/31 08:03:00;;;;;;;4.10;1.80;;;;;;;18.14;78.94;99596.19;104698;1268;138851;-76
2022/07/31 08:05:48;;;;;;;3.30;1.50;;;;;;;18.16;78.85;99597.11;104955;1270;98918;-75
2022/07/31 08:08:16;;;;;;;4.30;1.50;;;;;;;18.19;79.03;99596.92;104770;1270;108869;-75
2022/07/31 08:10:47;;;;;;;3.50;1.60;;;;;;;18.20;79.10;99599.34;104643;1269;139131;-74
2022/07/31 08:13:42;;;;;;;4.40;1.90;;;;;;;18.21;79.27;99600.19;104703;1270;95596;-75
2022/07/31 08:16:25;;;;;;;4.20;1.90;;;;;;;18.24;79.11;99601.44;104761;1270;138695;-76
2022/07/31 08:18:56;;;;;;;4.40;2.30;;;;;;;18.28;79.22;99602.05;104625;1270;99822;-73
2022/07/31 08:21:25;;;;;;;4.70;2.00;;;;;;;18.28;79.17;99600.43;104638;1269;139313;-74
2022/07/31 08:23:54;;;;;;;4.30;2.10;;;;;;;18.28;79.31;99602.98;104786;1270;95668;-75
2022/07/31 08:26:22;;;;;;;4.30;2.10;;;;;;;18.29;79.35;99601.10;104836;1269;95696;-74
2022/07/31 08:28:55;;;;;;;4.30;2.20;;;;;;;18.36;79.61;99599.98;104679;1267;138864;-75
2022/07/31 08:31:24;;;;;;;4.40;2.10;;;;;;;18.35;79.43;99601.88;104623;1270;100087;-75
2022/07/31 08:34:05;;;;;;;4.40;2.30;;;;;;;18.38;79.63;99598.08;104421;1270;138946;-74
2022/07/31 08:36:34;;;;;;;4.30;2.30;;;;;;;18.41;79.56;99601.45;104610;1270;96675;-74
2022/07/31 08:39:03;;;;;;;4.20;2.40;;;;;;;18.39;79.70;99598.22;104580;1270;142373;-74
2022/07/31 08:41:50;;;;;;;4.50;2.50;;;;;;;18.41;79.94;99602.91;104462;1270;109750;-74
2022/07/31 08:44:18;;;;;;;4.80;2.00;;;;;;;18.46;79.78;99596.83;104831;1268;99392;-74
2022/07/31 08:46:58;;;;;;;4.60;2.40;;;;;;;18.43;80.05;99597.95;105039;1270;138497;-74
2022/07/31 08:49:29;;;;;;;5.00;2.50;;;;;;;18.43;80.28;99597.36;104695;1270;95250;-74
2022/07/31 08:52:00;;;;;;;4.10;2.10;;;;;;;18.47;80.14;99598.71;104455;1270;138623;-75
2022/07/31 08:55:08;;;;;;;4.90;2.30;;;;;;;18.49;80.05;99598.23;104625;1270;109554;-74
2022/07/31 08:57:40;;;;;;;4.20;2.20;;;;;;;18.49;80.11;99598.55;104733;1268;138797;-74
2022/07/31 09:00:16;;;;;;;4.50;2.40;;;;;;;18.47;80.17;99596.38;104658;1270;109202;-74
2022/07/31 09:02:44;;;;;;;4.90;2.30;;;;;;;18.54;80.23;99597.48;104659;1270;138943;-75
2022/07/31 09:05:30;;;;;;;24.30;17.70;;;;;;;18.66;80.13;99602.73;104841;1268;95236;-74
2022/07/31 09:08:10;;;;;;;4.90;2.80;;;;;;;18.69;79.96;99603.91;104554;1270;109747;-75
2022/07/31 09:10:42;;;;;;;4.60;2.20;;;;;;;18.73;80.22;99604.58;104790;1268;139235;-74
2022/07/31 09:13:17;;;;;;;4.20;2.40;;;;;;;18.81;79.91;99606.52;104876;1268;109495;-76
2022/07/31 09:15:46;;;;;;;4.10;2.40;;;;;;;18.86;79.97;99605.58;104798;1268;141527;-76
2022/07/31 09:18:23;;;;;;;4.00;2.20;;;;;;;18.86;79.90;99609.35;104879;1268;95227;-78
2022/07/31 09:21:03;;;;;;;4.60;2.40;;;;;;;18.85;79.87;99609.80;104827;1270;139392;-76
2022/07/31 09:23:32;;;;;;;4.50;2.30;;;;;;;18.87;79.93;99616.66;104793;1270;101206;-74
2022/07/31 09:26:04;;;;;;;4.40;2.50;;;;;;;18.91;79.62;99619.80;104871;1268;108564;-75
2022/07/31 09:28:44;;;;;;;4.80;2.70;;;;;;;18.91;79.66;99619.14;104817;1270;138997;-75
2022/07/31 09:31:13;;;;;;;5.20;2.40;;;;;;;18.91;79.67;99619.66;104915;1267;97425;-74
2022/07/31 09:34:08;;;;;;;4.50;2.70;;;;;;;18.92;79.54;99624.08;104530;1268;141239;-74
2022/07/31 09:36:38;;;;;;;4.70;2.50;;;;;;;18.91;79.73;99625.98;104789;1267;99551;-75
2022/07/31 09:39:40;;;;;;;4.20;2.30;;;;;;;18.83;80.22;99626.29;104327;1268;138559;-74
2022/07/31 09:42:49;;;;;;;11.30;8.40;;;;;;;18.81;80.15;99625.40;104370;1271;95491;-74
2022/07/31 09:45:27;;;;;;;6.50;3.30;;;;;;;18.82;80.11;99625.27;104706;1268;139294;-73
2022/07/31 09:48:11;;;;;;;4.30;2.40;;;;;;;18.85;79.78;99622.40;104700;1270;108822;-72
2022/07/31 09:50:54;;;;;;;4.40;2.60;;;;;;;18.85;79.90;99623.66;104682;1268;138874;-72
2022/07/31 09:53:23;;;;;;;4.70;2.70;;;;;;;18.86;79.91;99626.27;104906;1270;109231;-72
2022/07/31 09:55:56;;;;;;;4.60;2.60;;;;;;;18.87;79.87;99628.01;104890;1270;95233;-72
2022/07/31 09:58:24;;;;;;;4.90;2.70;;;;;;;18.82;79.98;99624.19;105134;1267;139289;-72
2022/07/31 10:00:53;;;;;;;4.70;2.50;;;;;;;18.80;80.19;99624.71;104926;1267;109829;-73
2022/07/31 10:03:24;;;;;;;4.80;2.80;;;;;;;18.78;80.05;99623.98;104680;1270;139024;-72
2022/07/31 10:05:55;;;;;;;4.70;2.90;;;;;;;18.80;80.32;99622.41;104797;1268;107072;-74
2022/07/31 10:08:26;;;;;;;5.70;2.90;;;;;;;18.87;80.37;99621.33;105065;1267;95217;-72
2022/07/31 10:11:24;;;;;;;7.10;3.70;;;;;;;18.96;80.09;99624.35;104398;1271;96072;-72
2022/07/31 10:14:03;;;;;;;4.70;2.80;;;;;;;19.05;80.16;99620.94;104946;1267;109777;-73
2022/07/31 10:16:36;;;;;;;4.60;2.80;;;;;;;19.12;80.04;99627.30;104652;1270;141983;-71
2022/07/31 10:19:19;;;;;;;4.70;2.80;;;;;;;19.10;79.82;99625.83;104916;1268;108806;-73
2022/07/31 10:22:10;;;;;;;4.90;2.70;;;;;;;19.15;79.39;99628.29;104852;1267;138828;-72
2022/07/31 10:24:46;;;;;;;4.50;2.40;;;;;;;19.16;79.32;99628.95;105077;1268;95199;-72
2022/07/31 10:27:15;;;;;;;5.00;2.90;;;;;;;19.12;79.59;99632.30;104588;1270;138947;-72
2022/07/31 10:29:46;;;;;;;5.10;2.60;;;;;;;19.04;79.69;99635.98;104848;1270;98655;-72
2022/07/31 10:32:15;;;;;;;4.70;2.70;;;;;;;19.01;79.97;99636.16;104799;1270;107911;-72
2022/07/31 10:35:06;;;;;;;5.00;3.00;;;;;;;19.02;79.94;99638.63;104921;1268;95735;-72
2022/07/31 10:38:29;;;;;;;5.30;3.00;;;;;;;19.06;79.99;99641.37;104800;1269;95111;-72
2022/07/31 10:41:35;;;;;;;5.10;2.70;;;;;;;19.12;79.64;99643.11;104654;1268;110188;-73
2022/07/31 10:44:34;;;;;;;86.40;74.10;;;;;;;19.10;79.56;99647.91;104882;1267;99374;-71
2022/07/31 10:47:18;;;;;;;6.40;4.50;;;;;;;19.10;79.54;99653.12;104997;1268;109342;-73
2022/07/31 10:50:20;;;;;;;5.00;2.80;;;;;;;19.15;79.59;99656.42;105034;1268;95861;-72
2022/07/31 10:53:14;;;;;;;5.60;3.00;;;;;;;19.20;79.34;99655.13;105605;1269;95156;-72
2022/07/31 10:56:12;;;;;;;4.90;2.70;;;;;;;19.19;79.09;99654.26;104923;1270;109703;-72
2022/07/31 10:58:58;;;;;;;4.70;2.40;;;;;;;19.24;78.96;99653.60;104792;1269;99447;-72
2022/07/31 11:01:51;;;;;;;4.80;2.50;;;;;;;19.29;78.63;99651.94;105011;1267;107544;-73
2022/07/31 11:05:13;;;;;;;4.80;2.30;;;;;;;19.27;78.58;99652.13;104266;1276;138802;-72
2022/07/31 11:08:08;;;;;;;4.50;2.30;;;;;;;19.24;78.70;99651.28;105009;1268;95749;-73
2022/07/31 11:10:52;;;;;;;4.90;2.70;;;;;;;19.26;78.87;99653.81;104699;1270;138743;-72
2022/07/31 11:13:55;;;;;;;4.90;2.90;;;;;;;19.26;78.93;99655.78;104914;1270;98636;-71
2022/07/31 11:16:54;;;;;;;5.70;2.50;;;;;;;19.16;79.15;99653.27;104394;1273;138531;-72
2022/07/31 11:19:48;;;;;;;4.60;2.30;;;;;;;19.21;79.28;99657.17;104811;1270;95528;-72
2022/07/31 11:22:16;;;;;;;4.60;2.60;;;;;;;19.27;79.12;99659.67;104903;1268;138712;-72
2022/07/31 11:24:59;;;;;;;5.00;2.70;;;;;;;19.33;78.61;99664.92;104898;1268;109857;-72
2022/07/31 11:27:32;;;;;;;5.00;2.60;;;;;;;19.24;78.73;99667.77;104864;1269;138808;-73
2022/07/31 11:30:05;;;;;;;5.00;2.60;;;;;;;19.15;78.98;99666.09;104923;1267;107142;-72
2022/07/31 11:32:46;;;;;;;5.40;2.80;;;;;;;19.17;79.17;99668.10;104874;1268;138957;-72
2022/07/31 11:35:29;;;;;;;5.40;2.50;;;;;;;19.13;78.72;99668.23;105026;1268;95357;-72
2022/07/31 11:37:58;;;;;;;4.20;2.20;;;;;;;19.10;78.59;99671.69;105173;1267;109892;-72
2022/07/31 11:40:26;;;;;;;5.10;2.30;;;;;;;19.07;78.85;99670.64;105204;1267;139873;-71
2022/07/31 11:42:56;;;;;;;5.30;2.30;;;;;;;19.06;78.81;99673.61;105058;1267;109025;-72
2022/07/31 11:45:52;;;;;;;4.60;2.40;;;;;;;19.08;78.89;99675.11;104837;1267;139295;-72
2022/07/31 11:48:22;;;;;;;4.50;2.40;;;;;;;19.08;78.89;99671.85;106062;1267;95121;-72
2022/07/31 11:50:54;;;;;;;4.60;2.40;;;;;;;19.13;78.94;99671.44;105294;1266;140170;-72
2022/07/31 11:53:22;;;;;;;5.00;2.50;;;;;;;19.19;78.87;99676.23;105046;1267;99655;-72
2022/07/31 11:55:50;;;;;;;5.40;2.30;;;;;;;19.21;78.87;99675.71;105060;1267;109356;-73